Portada
METAR-TAF:

METAR-TAF

Aeropuertos :

Aeropuerto de Clermont-Ferrand/Auvergne

Clermont-Ferrand, Francia

latitud: 45-47N, longitud: 003-10E, altitud: 332 m

Observación

El informe se hizo hace 13 minutos, a las 00:30 UTC
Viento 4 kt del sur, variando entre este y sur-suroeste
Temperatura 7°C
Humedad 53%
Presión 1026 hPa
Visibilidad 10 km o más
sin nubes por debajo de 1500 m y sin presencia de cumulonimbus.

METAR: LFLC 020030Z AUTO 18004KT 080V210 CAVOK 07/M02 Q1026 NOSIG

Hora: 01:43 (00:43 UTC)

Pronóstico

El informe se hizo hace 1 hora y 43 minutos, a las 23:00 UTC
Pronóstico válido del 02 a las 00 UTC al 02 a las 24 UTC
Viento 8 kt del sur
Visibilidad 10 km o más
sin nubes por debajo de 1500 m y sin presencia de cumulonimbus.

TAF: LFLC 012300Z 0200/0224 18008KT CAVOK

Observaciones y pronósticos meteorológicos de más de 4000 aeropuertos (mensajes METAR y TAF).

Los puntos amarillos y rojos representan las estaciones disponibles.

Ponga el ratón en el punto deseado para ver el nombre de la estación.

Haga clic para ver las observaciones y los pronósticos meteorológicos.

Para cambiar el mapa : haga clic en los botones verdes con una cruz de color negro para hacer un zoom, en el botón verde con un guión para alejar o en las flechas verdes para mapas adyacentes.


METAR-TAF: